Time;durP1;ratioP1;P1;durP2;ratioP2;P2;SDS_P1;SDS_P2;PMS_P1;PMS_P2;Temp;Humidity;BMP_temperature;BMP_pressure;BME280_temperature;BME280_humidity;BME280_pressure;Samples;Min_cycle;Max_cycle;Signal;HPM_P1;HPM_P2
2024/01/28 00:01:09;;;;;;;12.95;7.80;;;;;;;4.14;71.01;94049.69;4848316;29;20042;-79
2024/01/28 00:03:41;;;;;;;13.10;7.57;;;;;;;4.09;71.09;94052.09;4847700;29;20080;-79
2024/01/28 00:06:32;;;;;;;14.65;8.00;;;;;;;4.04;74.21;94054.50;4831308;29;20042;-79
2024/01/28 00:08:57;;;;;;;15.27;7.90;;;;;;;4.01;73.19;94059.31;4847321;29;20037;-79
2024/01/28 00:11:23;;;;;;;15.35;7.57;;;;;;;4.00;73.88;94060.31;4816083;29;20038;-79
2024/01/28 00:14:06;;;;;;;14.43;7.28;;;;;;;4.00;74.46;94062.91;4847049;29;20066;-78
2024/01/28 00:16:31;;;;;;;13.50;7.13;;;;;;;3.94;72.59;94052.38;4847361;29;20086;-79
2024/01/28 00:19:00;;;;;;;14.07;7.18;;;;;;;4.01;73.08;94061.91;4847826;29;20041;-80
2024/01/28 00:21:29;;;;;;;15.00;8.23;;;;;;;4.07;74.04;94064.47;4847579;29;20058;-79
2024/01/28 00:23:55;;;;;;;15.65;7.35;;;;;;;4.09;74.96;94066.84;4847785;29;20062;-79
2024/01/28 00:26:42;;;;;;;13.65;7.65;;;;;;;4.09;75.48;94065.03;4847398;29;20137;-79
2024/01/28 00:29:08;;;;;;;14.45;7.70;;;;;;;4.07;76.83;94061.88;4847915;29;20076;-79
2024/01/28 00:31:34;;;;;;;14.68;7.35;;;;;;;4.05;79.38;94066.47;4847438;29;20038;-79
2024/01/28 00:34:12;;;;;;;14.82;7.97;;;;;;;4.00;78.98;94062.91;4847721;29;20053;-79
2024/01/28 00:36:42;;;;;;;13.88;7.50;;;;;;;3.87;81.01;94053.38;4831276;29;20046;-79
2024/01/28 00:39:10;;;;;;;12.48;7.35;;;;;;;3.79;80.89;94051.84;4848913;29;20113;-78
2024/01/28 00:41:36;;;;;;;13.55;7.40;;;;;;;3.76;80.73;94057.44;4832460;29;20128;-78
2024/01/28 00:44:01;;;;;;;13.55;6.97;;;;;;;3.72;81.01;94058.84;4848198;29;20145;-78
2024/01/28 00:46:37;;;;;;;15.10;7.80;;;;;;;3.60;82.26;94043.13;4849792;29;20034;-79
2024/01/28 00:49:04;;;;;;;11.90;6.60;;;;;;;3.64;81.89;94054.69;4848770;29;20053;-79
2024/01/28 00:51:31;;;;;;;12.05;6.82;;;;;;;3.55;82.35;94056.69;4831835;29;20037;-79
2024/01/28 00:54:00;;;;;;;12.48;6.43;;;;;;;3.53;82.05;94058.72;4833939;29;20042;-79
2024/01/28 00:56:25;;;;;;;15.50;7.10;;;;;;;3.46;82.22;94051.94;4834049;29;20069;-79
2024/01/28 00:58:51;;;;;;;15.00;7.05;;;;;;;3.47;80.44;94064.69;4847590;29;20041;-79
2024/01/28 01:01:23;;;;;;;13.32;7.13;;;;;;;3.48;81.95;94063.69;4847437;29;20069;-78
2024/01/28 01:03:48;;;;;;;11.35;6.63;;;;;;;3.46;81.45;94068.28;4847445;29;20487;-79
2024/01/28 01:06:14;;;;;;;12.60;6.18;;;;;;;3.43;82.25;94073.06;4848364;29;20050;-79
2024/01/28 01:08:49;;;;;;;10.88;6.22;;;;;;;3.36;81.18;94062.75;4833161;29;20034;-78
2024/01/28 01:11:30;;;;;;;13.05;6.30;;;;;;;3.35;83.80;94066.31;4833765;29;20045;-79
2024/01/28 01:13:57;;;;;;;11.93;6.35;;;;;;;3.33;82.49;94068.31;4849844;29;20058;-78
2024/01/28 01:16:23;;;;;;;12.82;6.25;;;;;;;3.22;82.98;94055.97;4849656;29;20041;-80
2024/01/28 01:18:48;;;;;;;11.48;6.10;;;;;;;3.26;83.95;94067.53;4849978;29;20497;-79
2024/01/28 01:21:14;;;;;;;14.45;6.15;;;;;;;3.27;83.36;94074.31;4851774;29;20033;-79
2024/01/28 01:23:39;;;;;;;11.50;6.18;;;;;;;3.23;84.77;94073.91;4851063;29;20048;-79
2024/01/28 01:26:26;;;;;;;10.20;5.88;;;;;;;3.23;84.04;94079.06;4850659;29;20030;-79
2024/01/28 01:28:52;;;;;;;11.38;5.60;;;;;;;3.22;83.98;94081.84;4836662;29;20038;-79
2024/01/28 01:31:17;;;;;;;9.30;5.70;;;;;;;3.15;85.24;94075.91;4854173;29;20040;-79
2024/01/28 01:33:45;;;;;;;13.80;5.75;;;;;;;3.12;84.58;94077.88;4853122;29;20053;-78
2024/01/28 01:36:11;;;;;;;12.65;5.82;;;;;;;3.08;85.31;94088.84;4837205;29;20038;-78
2024/01/28 01:38:38;;;;;;;8.27;5.32;;;;;;;3.07;82.90;94092.44;4838124;29;20042;-78
2024/01/28 01:41:25;;;;;;;9.93;5.88;;;;;;;3.10;82.93;94095.41;4837820;29;20343;-79
2024/01/28 01:43:53;;;;;;;10.82;5.45;;;;;;;3.07;82.38;94092.44;4837898;29;20118;-78
2024/01/28 01:46:20;;;;;;;10.82;6.13;;;;;;;3.08;81.97;94096.59;4854206;29;20041;-78
2024/01/28 01:48:47;;;;;;;9.45;5.22;;;;;;;3.08;82.13;94096.59;4853691;29;20506;-78
2024/01/28 01:52:00;;;;;;;10.93;5.80;;;;;;;3.05;83.77;94105.56;4853630;29;20037;-79
2024/01/28 01:54:57;;;;;;;9.18;4.93;;;;;;;3.04;85.00;94105.75;4854036;29;20525;-79
2024/01/28 01:57:24;;;;;;;9.05;5.03;;;;;;;3.02;84.06;94102.59;4852055;29;20030;-78
2024/01/28 01:59:57;;;;;;;10.68;5.40;;;;;;;3.03;83.88;94104.19;4854069;29;20503;-79
2024/01/28 02:02:24;;;;;;;10.52;4.95;;;;;;;3.01;84.42;94101.78;4852380;29;20046;-78
2024/01/28 02:04:50;;;;;;;11.18;5.20;;;;;;;3.00;84.03;94100.19;4852783;29;20517;-79
2024/01/28 02:07:16;;;;;;;10.55;5.10;;;;;;;3.00;84.52;94104.59;4835651;29;20049;-78
2024/01/28 02:09:46;;;;;;;10.52;4.75;;;;;;;2.98;85.96;94107.38;4852221;29;20034;-79
2024/01/28 02:12:26;;;;;;;10.07;5.10;;;;;;;2.97;85.01;94115.31;4851936;29;20499;-78
2024/01/28 02:15:18;;;;;;;9.70;5.00;;;;;;;2.96;83.91;94113.75;4851468;29;20471;-78
2024/01/28 02:17:50;;;;;;;10.87;6.00;;;;;;;2.95;82.94;94115.53;4853516;29;20038;-79
2024/01/28 02:20:16;;;;;;;12.32;5.82;;;;;;;2.93;83.21;94109.75;4836919;29;20072;-79
2024/01/28 02:22:44;;;;;;;12.10;6.00;;;;;;;2.95;83.39;94120.72;4853141;29;20164;-79
2024/01/28 02:25:45;;;;;;;10.80;5.82;;;;;;;2.94;83.70;94119.09;4837470;29;20066;-79
2024/01/28 02:28:13;;;;;;;12.77;6.20;;;;;;;2.91;84.22;94116.91;4852724;29;20045;-79
2024/01/28 02:30:58;;;;;;;12.65;6.40;;;;;;;2.87;84.71;94121.69;4852743;29;20125;-78
2024/01/28 02:33:23;;;;;;;11.63;6.38;;;;;;;2.84;85.47;94110.97;4853515;29;20410;-79
2024/01/28 02:35:49;;;;;;;10.85;6.43;;;;;;;2.83;85.11;94114.53;4854011;29;20038;-78
2024/01/28 02:38:31;;;;;;;12.70;6.45;;;;;;;2.80;85.37;94120.09;4836177;29;20041;-79
2024/01/28 02:40:57;;;;;;;11.40;6.13;;;;;;;2.80;87.16;94114.94;4853393;29;20042;-78
2024/01/28 02:43:22;;;;;;;14.43;6.25;;;;;;;2.77;87.77;94112.72;4821385;29;20456;-79
2024/01/28 02:45:57;;;;;;;12.85;5.65;;;;;;;2.74;88.16;94115.72;4852927;29;20050;-79
2024/01/28 02:48:29;;;;;;;10.32;5.60;;;;;;;2.71;88.80;94117.69;4852991;29;20066;-79
2024/01/28 02:51:19;;;;;;;9.93;5.72;;;;;;;2.71;90.57;94122.88;4852705;29;20049;-78
2024/01/28 02:53:47;;;;;;;10.07;5.85;;;;;;;2.68;91.31;94117.31;4852730;29;20037;-78
2024/01/28 02:56:15;;;;;;;10.40;5.95;;;;;;;2.67;90.37;94124.25;4821335;29;20564;-79
2024/01/28 02:58:41;;;;;;;10.13;5.47;;;;;;;2.68;91.02;94127.66;4853225;29;20077;-79
2024/01/28 03:01:06;;;;;;;10.55;5.07;;;;;;;2.67;91.48;94126.84;4836487;29;20038;-78
2024/01/28 03:03:37;;;;;;;10.25;5.20;;;;;;;2.68;90.38;94132.81;4836738;29;20042;-77
2024/01/28 03:06:20;;;;;;;8.70;4.82;;;;;;;2.67;89.40;94131.22;4852334;29;20566;-79
2024/01/28 03:08:57;;;;;;;9.93;4.57;;;;;;;2.65;89.48;94139.16;4835303;29;20049;-79
2024/01/28 03:14:50;;;;;;;12.57;5.70;;;;;;;2.58;90.24;94138.34;4851182;29;20034;-79
2024/01/28 03:17:16;;;;;;;12.27;5.50;;;;;;;2.58;90.36;94132.41;4852192;29;20046;-79
2024/01/28 03:19:47;;;;;;;12.27;4.90;;;;;;;2.58;89.70;94137.56;4851328;29;20061;-78
2024/01/28 03:22:13;;;;;;;11.32;5.40;;;;;;;2.60;90.91;94141.56;4819380;29;20418;-79
2024/01/28 03:24:40;;;;;;;10.90;5.20;;;;;;;2.63;90.65;94146.31;4835348;29;20122;-79
2024/01/28 03:27:44;;;;;;;10.35;5.13;;;;;;;2.64;93.00;94152.31;4851923;29;20040;-78
2024/01/28 03:30:10;;;;;;;11.10;5.20;;;;;;;2.64;94.86;94152.31;4852026;29;20069;-78
2024/01/28 03:32:52;;;;;;;8.40;5.30;;;;;;;2.65;96.76;94153.88;4850897;29;20030;-79
2024/01/28 03:35:18;;;;;;;9.70;5.00;;;;;;;2.64;94.87;94153.09;4849685;29;20075;-78
2024/01/28 03:37:50;;;;;;;12.50;4.95;;;;;;;2.63;95.56;94148.91;4849863;29;20026;-79
2024/01/28 03:40:16;;;;;;;8.88;4.97;;;;;;;2.61;94.27;94148.31;4835039;29;20102;-79
2024/01/28 03:42:47;;;;;;;10.90;5.38;;;;;;;2.61;95.48;94155.25;4832406;29;20053;-79
2024/01/28 03:45:13;;;;;;;10.45;5.03;;;;;;;2.59;95.07;94152.91;4819316;29;20050;-79
2024/01/28 03:47:38;;;;;;;12.73;5.57;;;;;;;2.59;93.44;94150.31;4834908;29;20038;-78
2024/01/28 03:50:06;;;;;;;9.65;5.15;;;;;;;2.59;94.94;94147.72;4851825;29;20122;-79
2024/01/28 03:52:31;;;;;;;12.25;6.32;;;;;;;2.58;94.62;94147.91;4835590;29;20036;-78
2024/01/28 03:55:40;;;;;;;12.43;6.68;;;;;;;2.58;92.46;94145.31;4851233;29;20128;-78
2024/01/28 03:58:11;;;;;;;11.27;5.90;;;;;;;2.56;93.89;94145.50;4836352;29;20133;-77
2024/01/28 04:00:37;;;;;;;11.18;6.43;;;;;;;2.57;94.45;94151.47;4851735;29;20498;-78
2024/01/28 04:03:14;;;;;;;11.77;6.07;;;;;;;2.55;94.89;94146.50;4818866;29;20061;-79
2024/01/28 04:05:39;;;;;;;12.00;6.30;;;;;;;2.49;93.90;94140.31;4818409;29;20053;-79
2024/01/28 04:08:10;;;;;;;12.90;5.90;;;;;;;2.52;94.66;94152.06;4836102;29;20507;-80
2024/01/28 04:10:37;;;;;;;12.35;5.90;;;;;;;2.50;94.20;94152.28;4835332;29;20053;-78
2024/01/28 04:13:15;;;;;;;11.15;6.22;;;;;;;2.50;96.05;94152.28;4820750;29;20065;-79
2024/01/28 04:15:41;;;;;;;10.95;5.60;;;;;;;2.47;96.54;94155.22;4851869;29;20046;-79
2024/01/28 04:18:06;;;;;;;10.23;5.93;;;;;;;2.47;96.71;94157.81;4849821;29;20034;-78
2024/01/28 04:20:35;;;;;;;11.82;6.00;;;;;;;2.43;96.72;94156.63;4850158;29;20051;-79
2024/01/28 04:23:01;;;;;;;10.75;5.13;;;;;;;2.42;96.58;94157.63;4834189;29;20046;-78
2024/01/28 04:25:45;;;;;;;10.15;5.80;;;;;;;2.39;95.47;94160.59;4849303;29;20042;-78
2024/01/28 04:28:11;;;;;;;9.27;5.10;;;;;;;2.37;95.12;94151.44;4831491;29;20489;-78
2024/01/28 04:30:44;;;;;;;9.30;5.20;;;;;;;2.39;93.90;94144.31;4849446;29;20139;-79
2024/01/28 04:33:12;;;;;;;9.65;5.30;;;;;;;2.40;93.59;94153.63;4832755;29;20049;-79
2024/01/28 04:35:42;;;;;;;9.55;5.55;;;;;;;2.42;92.61;94149.84;4849057;29;20010;-78
2024/01/28 04:38:08;;;;;;;11.15;5.78;;;;;;;2.42;91.82;94154.25;4850627;29;20090;-79
2024/01/28 04:40:35;;;;;;;9.93;5.90;;;;;;;2.36;92.31;94145.47;4851422;29;20034;-78
2024/01/28 04:43:01;;;;;;;9.52;5.95;;;;;;;2.40;91.46;94151.84;4849220;29;20067;-79
2024/01/28 04:45:27;;;;;;;10.60;5.90;;;;;;;2.37;92.06;94149.66;4831465;29;20053;-77
2024/01/28 04:47:54;;;;;;;11.85;6.47;;;;;;;2.39;90.99;94149.47;4851796;29;20054;-78
2024/01/28 04:50:25;;;;;;;9.85;5.55;;;;;;;2.37;89.40;94157.41;4849924;29;20690;-78
2024/01/28 04:53:02;;;;;;;8.98;5.22;;;;;;;2.38;86.82;94153.03;4833665;29;20042;-79
2024/01/28 04:55:43;;;;;;;9.07;5.18;;;;;;;2.38;84.63;94153.03;4850972;29;20038;-78
2024/01/28 04:58:17;;;;;;;11.15;5.78;;;;;;;2.32;84.34;94146.03;4850866;29;20038;-78
2024/01/28 05:00:43;;;;;;;11.13;5.30;;;;;;;2.36;83.27;94158.38;4851819;29;20057;-78
2024/01/28 05:03:31;;;;;;;8.27;4.85;;;;;;;2.35;83.32;94158.59;4854280;29;20030;-79
2024/01/28 05:05:59;;;;;;;8.10;4.82;;;;;;;2.33;83.55;94163.16;4854604;29;20042;-79
2024/01/28 05:08:25;;;;;;;9.45;4.55;;;;;;;2.32;81.19;94161.56;4838299;29;20038;-78
2024/01/28 05:10:51;;;;;;;9.35;5.25;;;;;;;2.26;81.07;94143.25;4854082;29;20443;-77
2024/01/28 05:13:17;;;;;;;8.65;4.60;;;;;;;2.33;81.63;94163.94;4853229;29;20049;-79
2024/01/28 05:15:50;;;;;;;9.55;4.85;;;;;;;2.31;81.76;94165.13;4854168;29;20071;-77
2024/01/28 05:18:16;;;;;;;9.95;4.80;;;;;;;2.31;81.77;94157.38;4853669;29;20062;-79
2024/01/28 05:20:42;;;;;;;7.72;4.47;;;;;;;2.30;81.59;94166.94;4855164;29;20044;-79
2024/01/28 05:23:09;;;;;;;10.40;4.65;;;;;;;2.28;82.26;94164.53;4808483;29;20506;-79
2024/01/28 05:25:34;;;;;;;8.75;4.43;;;;;;;2.27;81.75;94168.13;4855585;29;20498;-79
2024/01/28 05:28:00;;;;;;;9.15;4.85;;;;;;;2.27;82.85;94165.53;4838367;29;20042;-78
2024/01/28 05:30:35;;;;;;;10.48;4.97;;;;;;;2.25;81.85;94175.25;4855139;29;20105;-79
2024/01/28 05:33:07;;;;;;;9.60;4.63;;;;;;;2.26;81.69;94171.69;4856395;29;20093;-80
2024/01/28 05:35:33;;;;;;;10.88;4.85;;;;;;;2.23;81.14;94173.84;4856453;29;20046;-78
2024/01/28 05:37:59;;;;;;;9.13;4.32;;;;;;;2.21;79.90;94173.25;4856400;29;20037;-79
2024/01/28 05:40:33;;;;;;;8.32;4.10;;;;;;;2.22;78.88;94178.22;4839888;29;20056;-79
2024/01/28 05:42:58;;;;;;;7.45;4.18;;;;;;;2.23;78.29;94177.25;4856315;29;20049;-78
2024/01/28 05:45:24;;;;;;;9.63;4.60;;;;;;;2.19;77.55;94165.69;4823772;29;20054;-79
2024/01/28 05:47:50;;;;;;;8.98;4.13;;;;;;;2.25;78.16;94175.25;4856114;29;20304;-78
2024/01/28 05:50:21;;;;;;;7.68;4.28;;;;;;;2.27;78.69;94178.47;4838497;29;20498;-77
2024/01/28 05:52:57;;;;;;;9.15;4.47;;;;;;;2.28;79.25;94176.66;4855153;29;20026;-78
2024/01/28 05:55:23;;;;;;;8.85;4.15;;;;;;;2.27;78.59;94175.88;4854879;29;20388;-79
2024/01/28 05:58:03;;;;;;;8.95;4.13;;;;;;;2.22;78.59;94165.28;4837828;29;20047;-79
2024/01/28 06:00:46;;;;;;;8.15;4.30;;;;;;;2.22;77.79;94167.88;4853439;29;20109;-78
2024/01/28 06:03:12;;;;;;;7.55;3.83;;;;;;;2.23;78.58;94171.25;4837089;29;20397;-77
2024/01/28 06:05:41;;;;;;;9.60;3.97;;;;;;;2.23;78.75;94177.25;4822309;29;20509;-79
2024/01/28 06:08:07;;;;;;;7.03;4.22;;;;;;;2.24;78.43;94175.44;4837356;29;20044;-79
2024/01/28 06:10:33;;;;;;;8.23;3.92;;;;;;;2.22;77.83;94183.38;4853738;29;20105;-78
2024/01/28 06:12:59;;;;;;;8.63;4.30;;;;;;;2.21;78.42;94174.06;4853557;29;20659;-79
2024/01/28 06:15:29;;;;;;;10.27;4.57;;;;;;;2.20;78.26;94180.19;4836405;29;20034;-78
2024/01/28 06:17:55;;;;;;;9.95;4.63;;;;;;;2.21;77.60;94184.38;4837655;29;20065;-78
2024/01/28 06:20:20;;;;;;;7.80;4.00;;;;;;;2.18;77.62;94189.13;4821595;29;20114;-78
2024/01/28 06:22:54;;;;;;;8.50;4.32;;;;;;;2.19;77.45;94188.16;4837457;29;20128;-79
2024/01/28 06:25:20;;;;;;;7.68;3.75;;;;;;;2.19;77.36;94191.53;4854439;29;20566;-78
2024/01/28 06:27:45;;;;;;;8.07;4.07;;;;;;;2.19;76.99;94191.53;4837580;29;20106;-79
2024/01/28 06:30:17;;;;;;;8.88;4.70;;;;;;;2.19;76.18;94190.75;4837689;29;20125;-79
2024/01/28 06:32:43;;;;;;;7.75;4.15;;;;;;;2.18;76.29;94189.91;4853721;29;20025;-79
2024/01/28 06:35:14;;;;;;;7.82;4.28;;;;;;;2.17;75.42;94192.72;4854189;29;20064;-78
2024/01/28 06:37:49;;;;;;;10.75;4.57;;;;;;;2.17;75.20;94196.09;4837387;29;20514;-78
2024/01/28 06:40:14;;;;;;;10.07;4.10;;;;;;;2.17;75.54;94196.09;4837013;29;20077;-78
2024/01/28 06:42:40;;;;;;;9.27;4.30;;;;;;;2.14;75.68;94181.00;4853004;29;20074;-78
2024/01/28 06:45:07;;;;;;;7.90;4.18;;;;;;;2.16;75.82;94191.94;4822711;29;20534;-78
2024/01/28 06:47:34;;;;;;;7.85;3.65;;;;;;;2.16;76.67;94194.50;4837771;29;20130;-79
2024/01/28 06:50:03;;;;;;;7.82;3.97;;;;;;;2.17;77.77;94195.31;4854504;29;20045;-79
2024/01/28 06:52:29;;;;;;;8.60;4.00;;;;;;;2.17;76.89;94193.50;4837790;29;20053;-79
2024/01/28 06:54:55;;;;;;;7.60;4.28;;;;;;;2.22;77.24;94190.34;4837158;29;20045;-77
2024/01/28 06:57:21;;;;;;;6.93;3.95;;;;;;;2.22;78.33;94185.97;4851740;29;20033;-78
2024/01/28 06:59:49;;;;;;;7.80;3.78;;;;;;;2.24;78.25;94185.78;4835052;29;20034;-78
2024/01/28 07:02:24;;;;;;;8.93;4.20;;;;;;;2.27;77.38;94188.78;4850776;29;20090;-78
2024/01/28 07:04:50;;;;;;;8.02;3.90;;;;;;;2.34;78.54;94193.97;4849434;29;20046;-77
2024/01/28 07:07:15;;;;;;;7.05;3.60;;;;;;;2.38;77.61;94195.16;4850519;29;20075;-79
2024/01/28 07:09:56;;;;;;;8.95;3.80;;;;;;;2.63;77.45;94210.97;4850261;29;20095;-79
2024/01/28 07:12:22;;;;;;;8.50;4.13;;;;;;;3.37;74.94;94204.09;4834737;29;20069;-79
2024/01/28 07:15:12;;;;;;;8.48;3.88;;;;;;;4.32;71.62;94203.72;4835791;29;20027;-78
2024/01/28 07:17:54;;;;;;;7.97;4.10;;;;;;;5.24;68.28;94200.84;4836417;29;20052;-79
2024/01/28 07:20:34;;;;;;;7.20;3.63;;;;;;;6.10;62.84;94192.31;4833148;29;20042;-79
2024/01/28 07:23:11;;;;;;;8.23;4.13;;;;;;;6.97;59.37;94204.31;4835328;29;20038;-80
2024/01/28 07:25:36;;;;;;;8.18;4.15;;;;;;;7.75;56.43;94207.75;4830354;29;20057;-79
2024/01/28 07:28:18;;;;;;;9.07;4.70;;;;;;;8.53;52.34;94201.34;4846493;29;20030;-80
2024/01/28 07:30:44;;;;;;;6.93;4.28;;;;;;;9.18;48.33;94200.97;4828507;29;20390;-80
2024/01/28 07:33:10;;;;;;;7.85;4.10;;;;;;;9.88;46.62;94198.16;4831030;29;20050;-79
2024/01/28 07:35:35;;;;;;;8.68;4.25;;;;;;;10.52;44.34;94200.34;4820725;29;20045;-77
2024/01/28 07:38:01;;;;;;;8.25;4.25;;;;;;;11.22;42.56;94206.63;4840611;29;20025;-78
2024/01/28 07:40:27;;;;;;;7.85;4.05;;;;;;;11.80;41.00;94212.88;4825516;29;20443;-78
2024/01/28 07:42:55;;;;;;;7.88;4.18;;;;;;;12.55;38.16;94206.81;4844050;29;20138;-79
2024/01/28 07:45:21;;;;;;;9.13;4.05;;;;;;;13.26;37.63;94211.47;4827772;29;20053;-78
2024/01/28 07:47:47;;;;;;;9.50;4.68;;;;;;;13.68;35.94;94207.88;4837713;29;20403;-78
2024/01/28 07:50:12;;;;;;;7.60;4.53;;;;;;;14.23;34.60;94208.91;4821169;29;20101;-79
2024/01/28 07:52:38;;;;;;;8.20;4.38;;;;;;;14.64;32.74;94208.81;4842813;29;20049;-80
2024/01/28 07:55:05;;;;;;;7.45;4.30;;;;;;;14.97;32.07;94211.84;4825148;29;20042;-79
2024/01/28 07:57:33;;;;;;;8.02;4.40;;;;;;;15.47;31.41;94204.72;4841285;29;20025;-79
2024/01/28 07:59:58;;;;;;;8.60;4.72;;;;;;;15.57;30.57;94215.19;4841703;29;20128;-78
2024/01/28 08:02:24;;;;;;;9.02;4.70;;;;;;;15.49;30.77;94213.16;4840131;29;20529;-78
2024/01/28 08:04:49;;;;;;;7.22;4.25;;;;;;;15.91;29.95;94211.03;4841179;29;20050;-78
2024/01/28 08:07:15;;;;;;;7.78;4.82;;;;;;;16.74;29.36;94203.88;4820883;29;20034;-79
2024/01/28 08:09:41;;;;;;;6.97;4.63;;;;;;;16.88;28.87;94214.56;4836630;29;20037;-81
2024/01/28 08:12:07;;;;;;;7.72;4.75;;;;;;;17.16;27.93;94203.09;4827586;29;20034;-82
2024/01/28 08:14:33;;;;;;;10.45;4.72;;;;;;;17.53;28.16;94198.09;4794832;29;20046;-79
2024/01/28 08:16:59;;;;;;;8.82;5.20;;;;;;;17.33;27.61;94210.53;4840258;29;20120;-78
2024/01/28 08:19:24;;;;;;;10.10;5.68;;;;;;;19.02;27.30;94206.94;4845302;29;20030;-79
2024/01/28 08:21:51;;;;;;;8.48;5.38;;;;;;;19.14;27.20;94204.59;4839882;29;20058;-79
2024/01/28 08:24:16;;;;;;;10.30;5.90;;;;;;;18.67;26.61;94209.97;4838541;29;20065;-81
2024/01/28 08:26:42;;;;;;;8.55;5.70;;;;;;;19.88;26.50;94211.47;4809381;29;20037;-80
2024/01/28 08:29:08;;;;;;;10.20;6.28;;;;;;;21.25;23.78;94218.81;4840464;29;20057;-80
2024/01/28 08:31:33;;;;;;;10.20;6.03;;;;;;;21.02;23.80;94218.94;4828976;29;20049;-78
2024/01/28 08:34:00;;;;;;;8.82;6.40;;;;;;;20.61;24.51;94221.94;4841259;29;20073;-80
2024/01/28 08:36:26;;;;;;;8.25;5.95;;;;;;;19.78;25.93;94214.38;4829478;29;20033;-79
2024/01/28 08:38:52;;;;;;;9.00;6.22;;;;;;;20.66;24.95;94227.09;4803307;29;20034;-78
2024/01/28 08:41:17;;;;;;;12.07;6.45;;;;;;;20.00;25.27;94221.56;4819386;29;20042;-76
2024/01/28 08:43:44;;;;;;;11.45;6.22;;;;;;;20.27;24.78;94220.63;4839043;29;20118;-79
2024/01/28 08:46:10;;;;;;;9.27;5.82;;;;;;;20.42;24.22;94225.53;4842807;29;20030;-78
2024/01/28 08:48:36;;;;;;;8.80;6.07;;;;;;;19.10;26.10;94222.97;4836044;29;20049;-77
2024/01/28 08:51:01;;;;;;;9.32;6.32;;;;;;;19.62;25.84;94225.31;4836531;29;20033;-79
2024/01/28 08:53:27;;;;;;;9.38;5.88;;;;;;;20.73;25.05;94224.78;4838682;29;20038;-78
2024/01/28 08:55:54;;;;;;;9.55;5.88;;;;;;;19.99;25.14;94226.06;4835725;29;20499;-80
2024/01/28 08:58:19;;;;;;;8.57;5.93;;;;;;;20.31;25.39;94225.03;4838699;29;20065;-78
2024/01/28 09:00:45;;;;;;;11.70;6.78;;;;;;;19.48;25.79;94227.22;4839538;29;20053;-79
2024/01/28 09:03:11;;;;;;;8.10;5.65;;;;;;;18.41;27.10;94227.44;4845402;29;20048;-78
2024/01/28 09:05:36;;;;;;;9.20;6.15;;;;;;;17.47;28.31;94224.66;4822617;29;20030;-78
2024/01/28 09:08:03;;;;;;;9.05;6.03;;;;;;;16.36;29.96;94241.50;4842216;29;20098;-79
2024/01/28 09:10:28;;;;;;;9.68;6.28;;;;;;;16.65;30.48;94233.56;4857403;29;20049;-79
2024/01/28 09:12:54;;;;;;;9.27;6.18;;;;;;;16.08;32.22;94239.69;4796045;29;20035;-79
2024/01/28 09:15:19;;;;;;;9.60;6.20;;;;;;;15.76;32.39;94239.13;4837104;29;20033;-77
2024/01/28 09:17:45;;;;;;;10.45;6.00;;;;;;;15.16;33.43;94233.13;4840273;29;20466;-80
2024/01/28 09:20:11;;;;;;;9.57;6.15;;;;;;;14.65;34.29;94234.09;4819506;29;20064;-79
2024/01/28 09:22:37;;;;;;;11.25;6.70;;;;;;;14.28;35.76;94242.34;4819858;29;20121;-78
2024/01/28 09:25:03;;;;;;;12.57;6.82;;;;;;;14.43;35.67;94246.78;4837089;29;20038;-77
2024/01/28 09:27:30;;;;;;;10.85;6.63;;;;;;;14.57;35.03;94245.22;4797546;29;20482;-77
2024/01/28 09:29:55;;;;;;;10.50;6.13;;;;;;;14.09;36.06;94250.00;4822241;29;20129;-76
2024/01/28 09:32:23;;;;;;;9.68;6.20;;;;;;;14.10;35.96;94256.84;4839395;29;20090;-77
2024/01/28 09:34:49;;;;;;;10.30;6.18;;;;;;;13.79;36.69;94251.56;4839428;29;20495;-77
2024/01/28 09:37:14;;;;;;;9.57;6.10;;;;;;;13.45;36.16;94249.44;4838471;29;20049;-78
2024/01/28 09:39:40;;;;;;;10.45;5.85;;;;;;;13.70;36.51;94259.19;4838250;29;20034;-78
2024/01/28 09:42:35;;;;;;;10.65;5.53;;;;;;;13.90;37.06;94257.66;4839066;29;20082;-79
2024/01/28 09:45:00;;;;;;;8.75;5.60;;;;;;;14.47;36.40;94256.53;4789350;29;1510506;-78
2024/01/28 09:47:27;;;;;;;8.10;5.07;;;;;;;14.38;34.07;94263.38;4831125;29;20042;-78
2024/01/28 09:49:54;;;;;;;9.48;5.68;;;;;;;14.16;37.31;94258.41;4795697;29;20057;-78
2024/01/28 09:52:19;;;;;;;10.63;5.80;;;;;;;14.18;35.62;94264.19;4824653;29;20034;-78
2024/01/28 09:54:45;;;;;;;10.52;5.97;;;;;;;14.21;34.74;94268.16;4809405;29;20043;-78
2024/01/28 09:57:12;;;;;;;9.55;5.55;;;;;;;13.51;37.21;94272.06;4828874;29;20053;-78
2024/01/28 09:59:38;;;;;;;8.77;5.22;;;;;;;13.50;36.83;94273.13;4843070;29;20034;-79
2024/01/28 10:02:05;;;;;;;9.50;5.75;;;;;;;13.27;39.33;94270.94;4838191;29;20030;-78
2024/01/28 10:04:31;;;;;;;9.30;5.30;;;;;;;13.24;38.58;94271.44;4840058;29;20050;-78
2024/01/28 10:06:59;;;;;;;8.68;5.47;;;;;;;13.25;38.95;94273.03;4814579;29;20042;-78
2024/01/28 10:09:29;;;;;;;7.93;4.90;;;;;;;13.11;37.92;94276.13;4807353;29;20054;-78
2024/01/28 10:12:02;;;;;;;9.40;5.57;;;;;;;13.40;37.81;94269.69;4824573;29;20247;-77
2024/01/28 10:14:27;;;;;;;8.50;5.00;;;;;;;13.45;37.29;94272.31;4832698;29;20046;-77
2024/01/28 10:16:57;;;;;;;9.77;5.60;;;;;;;13.22;40.68;94276.19;4825267;29;20065;-78
2024/01/28 10:19:23;;;;;;;8.68;5.70;;;;;;;12.66;42.84;94282.78;4854286;29;20036;-78
2024/01/28 10:21:48;;;;;;;7.90;4.47;;;;;;;12.85;40.49;94279.72;4816687;29;20050;-78
2024/01/28 10:24:19;;;;;;;9.55;5.25;;;;;;;12.84;42.04;94278.13;4824723;29;20038;-78
2024/01/28 10:26:45;;;;;;;8.38;4.55;;;;;;;12.96;42.37;94280.56;4824759;29;20042;-78
2024/01/28 10:29:12;;;;;;;9.40;5.25;;;;;;;12.61;43.33;94274.88;4823482;29;20027;-77
2024/01/28 10:31:38;;;;;;;9.90;5.75;;;;;;;12.71;43.86;94277.53;4811546;29;20073;-79
2024/01/28 10:34:04;;;;;;;8.80;4.80;;;;;;;12.52;44.07;94275.59;4824679;29;20076;-78
2024/01/28 10:36:34;;;;;;;10.20;5.95;;;;;;;12.25;45.05;94277.28;4825098;29;20137;-79
2024/01/28 10:39:04;;;;;;;8.60;5.50;;;;;;;12.00;45.62;94262.16;4842112;29;20491;-77
2024/01/28 10:41:33;;;;;;;8.75;5.13;;;;;;;12.41;46.14;94266.88;4842583;29;20048;-76
2024/01/28 10:44:05;;;;;;;8.00;5.03;;;;;;;12.51;43.73;94264.31;4841667;29;20110;-79
2024/01/28 10:46:38;;;;;;;;;;;;;;;12.19;42.57;94257.28;4826051;29;20073;-79
2024/01/28 10:49:06;;;;;;;8.32;4.20;;;;;;;12.51;41.92;94253.78;4839750;29;19977;-78
2024/01/28 10:51:36;;;;;;;7.45;3.40;;;;;;;12.85;39.94;94258.69;4828726;29;20291;-77
2024/01/28 10:54:09;;;;;;;6.70;3.22;;;;;;;13.48;37.29;94251.53;4823622;29;20744;-78
2024/01/28 10:56:39;;;;;;;12.68;5.93;;;;;;;13.58;41.93;94257.84;4842249;29;20038;-79
2024/01/28 10:59:04;;;;;;;6.95;3.95;;;;;;;13.12;38.33;94254.03;4844933;29;20022;-78
2024/01/28 11:01:32;;;;;;;7.25;4.55;;;;;;;13.41;40.44;94245.75;4841426;29;20037;-77
2024/01/28 11:03:59;;;;;;;8.77;4.82;;;;;;;13.77;40.26;94247.63;4839388;29;20094;-78
2024/01/28 11:06:30;;;;;;;9.38;4.13;;;;;;;13.31;38.40;94248.38;4826234;29;20050;-77
2024/01/28 11:08:55;;;;;;;7.53;4.00;;;;;;;13.13;38.97;94253.00;4839082;29;20050;-79
2024/01/28 11:11:22;;;;;;;7.95;5.07;;;;;;;13.48;40.18;94243.63;4824687;29;20456;-79
2024/01/28 11:13:48;;;;;;;6.43;3.97;;;;;;;13.10;39.35;94250.09;4833778;29;20119;-78
2024/01/28 11:16:15;;;;;;;6.18;3.00;;;;;;;13.12;40.70;94248.78;4841968;29;20498;-77
2024/01/28 11:18:52;;;;;;;5.05;2.97;;;;;;;12.84;42.55;94236.88;4807132;29;20039;-78
2024/01/28 11:21:19;;;;;;;9.55;5.80;;;;;;;12.61;46.57;94245.97;4823391;29;20042;-77
2024/01/28 11:23:47;;;;;;;9.30;4.93;;;;;;;12.60;45.60;94254.09;4824083;29;20094;-79
2024/01/28 11:26:17;;;;;;;7.10;4.50;;;;;;;12.54;44.21;94239.34;4836473;29;20045;-79
2024/01/28 11:28:52;;;;;;;7.60;4.53;;;;;;;12.62;45.95;94244.91;4840399;29;20041;-80
2024/01/28 11:31:34;;;;;;;8.88;4.72;;;;;;;12.01;43.12;94244.56;4822556;29;20106;-79
2024/01/28 11:34:13;;;;;;;7.10;4.28;;;;;;;11.73;43.52;94241.16;4822058;29;20141;-79
2024/01/28 11:36:43;;;;;;;6.53;3.90;;;;;;;11.44;41.54;94254.56;4822823;29;20070;-79
2024/01/28 11:39:12;;;;;;;7.28;4.40;;;;;;;11.47;43.17;94245.38;4823416;29;20035;-78
2024/01/28 11:41:39;;;;;;;6.70;4.13;;;;;;;11.72;40.20;94242.19;4806496;29;20034;-79
2024/01/28 11:44:09;;;;;;;5.00;3.20;;;;;;;11.53;40.30;94243.59;4822574;29;20138;-80
2024/01/28 11:46:36;;;;;;;6.57;3.70;;;;;;;11.43;40.62;94245.09;4832126;29;20517;-79
2024/01/28 11:49:02;;;;;;;7.38;3.55;;;;;;;11.34;39.64;94251.81;4828458;29;20091;-77